sensor_id;sensor_type;location;lat;lon;timestamp;P1;durP1;ratioP1;P2;durP2;ratioP2
13487;SDS011;6816;48.506;9.050;2023-04-23T00:01:31;2.37;;;2.17;;
13487;SDS011;6816;48.506;9.050;2023-04-23T00:04:34;2.70;;;2.30;;
13487;SDS011;6816;48.506;9.050;2023-04-23T00:07:37;2.83;;;2.30;;
13487;SDS011;6816;48.506;9.050;2023-04-23T00:10:38;3.23;;;2.33;;
13487;SDS011;6816;48.506;9.050;2023-04-23T00:13:39;2.50;;;2.00;;
13487;SDS011;6816;48.506;9.050;2023-04-23T00:16:40;2.60;;;1.97;;
13487;SDS011;6816;48.506;9.050;2023-04-23T00:19:40;2.40;;;2.20;;
13487;SDS011;6816;48.506;9.050;2023-04-23T00:22:42;3.93;;;2.40;;
13487;SDS011;6816;48.506;9.050;2023-04-23T00:25:42;2.00;;;1.90;;
13487;SDS011;6816;48.506;9.050;2023-04-23T00:28:43;3.47;;;2.37;;
13487;SDS011;6816;48.506;9.050;2023-04-23T00:31:43;2.50;;;2.03;;
13487;SDS011;6816;48.506;9.050;2023-04-23T00:34:44;2.40;;;2.20;;
13487;SDS011;6816;48.506;9.050;2023-04-23T00:37:47;2.87;;;2.50;;
13487;SDS011;6816;48.506;9.050;2023-04-23T00:40:48;4.20;;;2.40;;
13487;SDS011;6816;48.506;9.050;2023-04-23T00:43:49;4.90;;;2.27;;
13487;SDS011;6816;48.506;9.050;2023-04-23T00:46:52;3.07;;;2.37;;
13487;SDS011;6816;48.506;9.050;2023-04-23T00:49:53;4.80;;;2.50;;
13487;SDS011;6816;48.506;9.050;2023-04-23T00:52:55;5.33;;;2.43;;
13487;SDS011;6816;48.506;9.050;2023-04-23T00:55:56;2.80;;;2.47;;
13487;SDS011;6816;48.506;9.050;2023-04-23T00:58:57;3.90;;;2.20;;
13487;SDS011;6816;48.506;9.050;2023-04-23T01:01:58;3.07;;;2.13;;
13487;SDS011;6816;48.506;9.050;2023-04-23T01:04:59;3.87;;;2.50;;
13487;SDS011;6816;48.506;9.050;2023-04-23T01:08:01;4.80;;;2.70;;
13487;SDS011;6816;48.506;9.050;2023-04-23T01:11:02;2.40;;;2.20;;
13487;SDS011;6816;48.506;9.050;2023-04-23T01:14:02;4.20;;;2.57;;
13487;SDS011;6816;48.506;9.050;2023-04-23T01:17:03;2.97;;;2.10;;
13487;SDS011;6816;48.506;9.050;2023-04-23T01:20:04;2.63;;;2.10;;
13487;SDS011;6816;48.506;9.050;2023-04-23T01:23:06;2.40;;;2.10;;
13487;SDS011;6816;48.506;9.050;2023-04-23T01:26:07;3.00;;;2.00;;
13487;SDS011;6816;48.506;9.050;2023-04-23T01:29:09;4.27;;;2.40;;
13487;SDS011;6816;48.506;9.050;2023-04-23T01:32:10;2.93;;;2.10;;
13487;SDS011;6816;48.506;9.050;2023-04-23T01:35:11;5.40;;;2.50;;
13487;SDS011;6816;48.506;9.050;2023-04-23T01:38:12;2.70;;;2.40;;
13487;SDS011;6816;48.506;9.050;2023-04-23T01:41:13;4.70;;;2.40;;
13487;SDS011;6816;48.506;9.050;2023-04-23T01:44:14;3.93;;;2.47;;
13487;SDS011;6816;48.506;9.050;2023-04-23T01:47:15;3.17;;;2.20;;
13487;SDS011;6816;48.506;9.050;2023-04-23T01:50:16;4.40;;;2.80;;
13487;SDS011;6816;48.506;9.050;2023-04-23T01:53:17;2.37;;;2.00;;
13487;SDS011;6816;48.506;9.050;2023-04-23T01:56:18;2.60;;;2.00;;
13487;SDS011;6816;48.506;9.050;2023-04-23T01:59:21;3.30;;;2.00;;
13487;SDS011;6816;48.506;9.050;2023-04-23T02:02:22;3.60;;;2.03;;
13487;SDS011;6816;48.506;9.050;2023-04-23T02:05:24;4.30;;;2.13;;
13487;SDS011;6816;48.506;9.050;2023-04-23T02:08:27;4.10;;;2.07;;
13487;SDS011;6816;48.506;9.050;2023-04-23T02:11:28;2.20;;;1.90;;
13487;SDS011;6816;48.506;9.050;2023-04-23T02:14:29;5.30;;;2.07;;
13487;SDS011;6816;48.506;9.050;2023-04-23T02:17:30;2.30;;;1.97;;
13487;SDS011;6816;48.506;9.050;2023-04-23T02:20:30;1.70;;;1.60;;
13487;SDS011;6816;48.506;9.050;2023-04-23T02:23:31;2.40;;;2.00;;
13487;SDS011;6816;48.506;9.050;2023-04-23T02:26:32;1.83;;;1.73;;
13487;SDS011;6816;48.506;9.050;2023-04-23T02:29:33;2.67;;;1.50;;
13487;SDS011;6816;48.506;9.050;2023-04-23T02:32:34;1.83;;;1.60;;
13487;SDS011;6816;48.506;9.050;2023-04-23T02:35:36;2.90;;;1.63;;
13487;SDS011;6816;48.506;9.050;2023-04-23T02:38:36;3.53;;;1.80;;
13487;SDS011;6816;48.506;9.050;2023-04-23T02:41:40;2.17;;;1.23;;
13487;SDS011;6816;48.506;9.050;2023-04-23T02:44:41;1.60;;;1.30;;
13487;SDS011;6816;48.506;9.050;2023-04-23T02:47:41;2.00;;;1.30;;
13487;SDS011;6816;48.506;9.050;2023-04-23T02:50:42;1.40;;;1.30;;
13487;SDS011;6816;48.506;9.050;2023-04-23T02:53:42;1.90;;;1.20;;
13487;SDS011;6816;48.506;9.050;2023-04-23T02:56:43;1.57;;;1.07;;
13487;SDS011;6816;48.506;9.050;2023-04-23T02:59:44;2.40;;;1.60;;
13487;SDS011;6816;48.506;9.050;2023-04-23T03:02:45;1.93;;;1.50;;
13487;SDS011;6816;48.506;9.050;2023-04-23T03:05:46;2.13;;;1.40;;
13487;SDS011;6816;48.506;9.050;2023-04-23T03:08:46;2.80;;;1.50;;
13487;SDS011;6816;48.506;9.050;2023-04-23T03:11:47;3.33;;;1.50;;
13487;SDS011;6816;48.506;9.050;2023-04-23T03:14:47;2.80;;;1.40;;
13487;SDS011;6816;48.506;9.050;2023-04-23T03:17:48;3.07;;;1.50;;
13487;SDS011;6816;48.506;9.050;2023-04-23T03:20:51;1.50;;;1.30;;
13487;SDS011;6816;48.506;9.050;2023-04-23T03:23:51;1.97;;;1.70;;
13487;SDS011;6816;48.506;9.050;2023-04-23T03:26:52;2.27;;;1.63;;
13487;SDS011;6816;48.506;9.050;2023-04-23T03:29:53;1.90;;;1.80;;
13487;SDS011;6816;48.506;9.050;2023-04-23T03:32:54;2.13;;;1.70;;
13487;SDS011;6816;48.506;9.050;2023-04-23T03:35:58;2.27;;;1.70;;
13487;SDS011;6816;48.506;9.050;2023-04-23T03:38:58;2.60;;;1.73;;
13487;SDS011;6816;48.506;9.050;2023-04-23T03:41:59;2.50;;;1.90;;
13487;SDS011;6816;48.506;9.050;2023-04-23T03:45:00;3.30;;;1.90;;
13487;SDS011;6816;48.506;9.050;2023-04-23T03:48:01;1.60;;;1.50;;
13487;SDS011;6816;48.506;9.050;2023-04-23T03:51:02;3.40;;;1.73;;
13487;SDS011;6816;48.506;9.050;2023-04-23T03:54:02;1.87;;;1.40;;
13487;SDS011;6816;48.506;9.050;2023-04-23T03:57:03;2.33;;;1.70;;
13487;SDS011;6816;48.506;9.050;2023-04-23T04:00:04;3.73;;;2.10;;
13487;SDS011;6816;48.506;9.050;2023-04-23T04:03:07;2.00;;;1.70;;
13487;SDS011;6816;48.506;9.050;2023-04-23T04:06:08;1.57;;;1.43;;
13487;SDS011;6816;48.506;9.050;2023-04-23T04:09:09;4.77;;;1.87;;
13487;SDS011;6816;48.506;9.050;2023-04-23T04:12:09;2.03;;;1.77;;
13487;SDS011;6816;48.506;9.050;2023-04-23T04:15:11;2.60;;;1.93;;
13487;SDS011;6816;48.506;9.050;2023-04-23T04:18:11;1.93;;;1.70;;
13487;SDS011;6816;48.506;9.050;2023-04-23T04:21:12;2.17;;;1.80;;
13487;SDS011;6816;48.506;9.050;2023-04-23T04:24:13;2.43;;;2.23;;
13487;SDS011;6816;48.506;9.050;2023-04-23T04:27:13;2.37;;;1.93;;
13487;SDS011;6816;48.506;9.050;2023-04-23T04:30:14;2.90;;;2.30;;
13487;SDS011;6816;48.506;9.050;2023-04-23T04:33:15;2.40;;;1.97;;
13487;SDS011;6816;48.506;9.050;2023-04-23T04:36:16;2.20;;;2.00;;
13487;SDS011;6816;48.506;9.050;2023-04-23T04:39:17;2.23;;;1.83;;
13487;SDS011;6816;48.506;9.050;2023-04-23T04:42:18;2.80;;;1.90;;
13487;SDS011;6816;48.506;9.050;2023-04-23T04:45:19;1.93;;;1.83;;
13487;SDS011;6816;48.506;9.050;2023-04-23T04:48:20;2.30;;;1.73;;
13487;SDS011;6816;48.506;9.050;2023-04-23T04:51:20;1.70;;;1.60;;
13487;SDS011;6816;48.506;9.050;2023-04-23T04:54:21;1.87;;;1.67;;
13487;SDS011;6816;48.506;9.050;2023-04-23T04:57:22;1.83;;;1.50;;
13487;SDS011;6816;48.506;9.050;2023-04-23T05:00:23;2.67;;;2.00;;
13487;SDS011;6816;48.506;9.050;2023-04-23T05:03:28;1.83;;;1.70;;
13487;SDS011;6816;48.506;9.050;2023-04-23T05:06:29;1.97;;;1.77;;
13487;SDS011;6816;48.506;9.050;2023-04-23T05:09:31;2.60;;;1.87;;
13487;SDS011;6816;48.506;9.050;2023-04-23T05:12:31;4.93;;;1.93;;
13487;SDS011;6816;48.506;9.050;2023-04-23T05:15:32;3.00;;;2.20;;
13487;SDS011;6816;48.506;9.050;2023-04-23T05:18:33;2.47;;;2.20;;
13487;SDS011;6816;48.506;9.050;2023-04-23T05:21:33;2.13;;;1.93;;
13487;SDS011;6816;48.506;9.050;2023-04-23T05:24:34;2.37;;;2.17;;
13487;SDS011;6816;48.506;9.050;2023-04-23T05:27:34;2.47;;;1.97;;
13487;SDS011;6816;48.506;9.050;2023-04-23T05:30:35;2.10;;;1.90;;
13487;SDS011;6816;48.506;9.050;2023-04-23T05:33:36;2.03;;;1.83;;
13487;SDS011;6816;48.506;9.050;2023-04-23T05:36:37;2.20;;;1.60;;
13487;SDS011;6816;48.506;9.050;2023-04-23T05:39:39;2.73;;;1.70;;
13487;SDS011;6816;48.506;9.050;2023-04-23T05:42:39;2.30;;;1.90;;
13487;SDS011;6816;48.506;9.050;2023-04-23T05:45:40;2.03;;;1.83;;
13487;SDS011;6816;48.506;9.050;2023-04-23T05:48:41;1.67;;;1.50;;
13487;SDS011;6816;48.506;9.050;2023-04-23T05:51:42;1.80;;;1.70;;
13487;SDS011;6816;48.506;9.050;2023-04-23T05:54:43;2.50;;;1.80;;
13487;SDS011;6816;48.506;9.050;2023-04-23T05:57:44;3.03;;;1.90;;
13487;SDS011;6816;48.506;9.050;2023-04-23T06:00:45;1.60;;;1.50;;
13487;SDS011;6816;48.506;9.050;2023-04-23T06:03:45;1.93;;;1.70;;
13487;SDS011;6816;48.506;9.050;2023-04-23T06:06:46;2.00;;;1.73;;
13487;SDS011;6816;48.506;9.050;2023-04-23T06:09:47;1.77;;;1.30;;
13487;SDS011;6816;48.506;9.050;2023-04-23T06:12:47;1.90;;;1.40;;
13487;SDS011;6816;48.506;9.050;2023-04-23T06:15:48;1.07;;;0.97;;
13487;SDS011;6816;48.506;9.050;2023-04-23T06:18:49;1.53;;;1.27;;
13487;SDS011;6816;48.506;9.050;2023-04-23T06:21:49;1.30;;;1.20;;
13487;SDS011;6816;48.506;9.050;2023-04-23T06:24:50;1.50;;;1.20;;
13487;SDS011;6816;48.506;9.050;2023-04-23T06:27:51;3.83;;;1.40;;
13487;SDS011;6816;48.506;9.050;2023-04-23T06:30:51;1.00;;;1.00;;
13487;SDS011;6816;48.506;9.050;2023-04-23T06:33:52;0.80;;;0.80;;
13487;SDS011;6816;48.506;9.050;2023-04-23T06:36:52;0.90;;;0.80;;
13487;SDS011;6816;48.506;9.050;2023-04-23T06:39:53;1.10;;;1.00;;
13487;SDS011;6816;48.506;9.050;2023-04-23T06:42:54;1.30;;;1.10;;
13487;SDS011;6816;48.506;9.050;2023-04-23T06:45:55;1.37;;;1.00;;
13487;SDS011;6816;48.506;9.050;2023-04-23T06:48:55;1.00;;;0.90;;
13487;SDS011;6816;48.506;9.050;2023-04-23T06:51:56;1.63;;;1.03;;
13487;SDS011;6816;48.506;9.050;2023-04-23T06:54:57;0.70;;;0.70;;
13487;SDS011;6816;48.506;9.050;2023-04-23T06:57:57;1.13;;;1.07;;
13487;SDS011;6816;48.506;9.050;2023-04-23T07:00:58;1.27;;;0.83;;
13487;SDS011;6816;48.506;9.050;2023-04-23T07:03:59;1.10;;;1.00;;
13487;SDS011;6816;48.506;9.050;2023-04-23T07:07:00;1.00;;;0.90;;
13487;SDS011;6816;48.506;9.050;2023-04-23T07:10:01;0.80;;;0.67;;
13487;SDS011;6816;48.506;9.050;2023-04-23T07:13:02;0.80;;;0.80;;
13487;SDS011;6816;48.506;9.050;2023-04-23T07:16:03;0.80;;;0.70;;
13487;SDS011;6816;48.506;9.050;2023-04-23T07:19:04;0.70;;;0.68;;
13487;SDS011;6816;48.506;9.050;2023-04-23T07:22:04;1.02;;;0.90;;
13487;SDS011;6816;48.506;9.050;2023-04-23T07:25:05;1.00;;;0.90;;
13487;SDS011;6816;48.506;9.050;2023-04-23T07:28:07;1.35;;;0.80;;
13487;SDS011;6816;48.506;9.050;2023-04-23T07:31:08;0.60;;;0.60;;
13487;SDS011;6816;48.506;9.050;2023-04-23T07:34:09;0.88;;;0.85;;
13487;SDS011;6816;48.506;9.050;2023-04-23T07:37:10;0.88;;;0.80;;
13487;SDS011;6816;48.506;9.050;2023-04-23T07:40:11;0.60;;;0.57;;
13487;SDS011;6816;48.506;9.050;2023-04-23T07:43:11;1.15;;;0.80;;
13487;SDS011;6816;48.506;9.050;2023-04-23T07:46:13;0.60;;;0.60;;
13487;SDS011;6816;48.506;9.050;2023-04-23T07:49:13;0.67;;;0.67;;
13487;SDS011;6816;48.506;9.050;2023-04-23T07:52:15;0.50;;;0.50;;
13487;SDS011;6816;48.506;9.050;2023-04-23T07:55:16;0.65;;;0.65;;
13487;SDS011;6816;48.506;9.050;2023-04-23T07:58:19;0.63;;;0.50;;
13487;SDS011;6816;48.506;9.050;2023-04-23T08:01:19;1.02;;;0.60;;
13487;SDS011;6816;48.506;9.050;2023-04-23T08:04:20;0.77;;;0.70;;
13487;SDS011;6816;48.506;9.050;2023-04-23T08:07:21;0.40;;;0.40;;
13487;SDS011;6816;48.506;9.050;2023-04-23T08:10:22;0.63;;;0.50;;
13487;SDS011;6816;48.506;9.050;2023-04-23T08:13:22;0.93;;;0.60;;
13487;SDS011;6816;48.506;9.050;2023-04-23T08:16:23;0.50;;;0.50;;
13487;SDS011;6816;48.506;9.050;2023-04-23T08:19:23;0.60;;;0.50;;
13487;SDS011;6816;48.506;9.050;2023-04-23T08:22:25;0.80;;;0.52;;
13487;SDS011;6816;48.506;9.050;2023-04-23T08:25:26;0.63;;;0.63;;
13487;SDS011;6816;48.506;9.050;2023-04-23T08:28:26;0.60;;;0.60;;
13487;SDS011;6816;48.506;9.050;2023-04-23T08:31:27;1.95;;;0.82;;
13487;SDS011;6816;48.506;9.050;2023-04-23T08:34:28;0.57;;;0.57;;
13487;SDS011;6816;48.506;9.050;2023-04-23T08:37:28;1.13;;;0.52;;
13487;SDS011;6816;48.506;9.050;2023-04-23T08:40:30;0.68;;;0.60;;
13487;SDS011;6816;48.506;9.050;2023-04-23T08:43:33;1.13;;;0.60;;
13487;SDS011;6816;48.506;9.050;2023-04-23T08:46:42;0.50;;;0.50;;
13487;SDS011;6816;48.506;9.050;2023-04-23T08:49:44;0.60;;;0.60;;
13487;SDS011;6816;48.506;9.050;2023-04-23T08:52:49;1.40;;;0.60;;
13487;SDS011;6816;48.506;9.050;2023-04-23T08:55:52;0.60;;;0.60;;
13487;SDS011;6816;48.506;9.050;2023-04-23T08:58:58;0.70;;;0.70;;
13487;SDS011;6816;48.506;9.050;2023-04-23T09:01:59;1.00;;;0.90;;
13487;SDS011;6816;48.506;9.050;2023-04-23T09:05:06;1.67;;;0.60;;
13487;SDS011;6816;48.506;9.050;2023-04-23T09:08:07;0.98;;;0.68;;
13487;SDS011;6816;48.506;9.050;2023-04-23T09:11:09;1.45;;;0.88;;
13487;SDS011;6816;48.506;9.050;2023-04-23T09:14:11;1.05;;;0.77;;
13487;SDS011;6816;48.506;9.050;2023-04-23T09:17:12;2.47;;;0.70;;
13487;SDS011;6816;48.506;9.050;2023-04-23T09:20:13;0.68;;;0.68;;
13487;SDS011;6816;48.506;9.050;2023-04-23T09:23:14;1.02;;;0.65;;
13487;SDS011;6816;48.506;9.050;2023-04-23T09:26:18;1.23;;;0.88;;
13487;SDS011;6816;48.506;9.050;2023-04-23T09:29:22;1.58;;;1.23;;
13487;SDS011;6816;48.506;9.050;2023-04-23T09:32:30;0.70;;;0.70;;
13487;SDS011;6816;48.506;9.050;2023-04-23T09:35:34;0.65;;;0.60;;
13487;SDS011;6816;48.506;9.050;2023-04-23T09:38:36;0.88;;;0.60;;
13487;SDS011;6816;48.506;9.050;2023-04-23T09:41:40;0.63;;;0.63;;
13487;SDS011;6816;48.506;9.050;2023-04-23T09:44:41;0.98;;;0.57;;
13487;SDS011;6816;48.506;9.050;2023-04-23T09:50:48;0.80;;;0.60;;
13487;SDS011;6816;48.506;9.050;2023-04-23T09:53:49;0.75;;;0.75;;
13487;SDS011;6816;48.506;9.050;2023-04-23T09:56:53;0.70;;;0.70;;
13487;SDS011;6816;48.506;9.050;2023-04-23T09:59:59;0.60;;;0.60;;
13487;SDS011;6816;48.506;9.050;2023-04-23T10:03:25;0.80;;;0.80;;
13487;SDS011;6816;48.506;9.050;2023-04-23T10:06:27;0.60;;;0.60;;
13487;SDS011;6816;48.506;9.050;2023-04-23T10:09:29;0.60;;;0.60;;
13487;SDS011;6816;48.506;9.050;2023-04-23T10:12:30;1.50;;;0.70;;
13487;SDS011;6816;48.506;9.050;2023-04-23T10:15:31;0.68;;;0.68;;
13487;SDS011;6816;48.506;9.050;2023-04-23T10:18:33;0.77;;;0.60;;
13487;SDS011;6816;48.506;9.050;2023-04-23T10:21:36;0.80;;;0.80;;
13487;SDS011;6816;48.506;9.050;2023-04-23T10:24:38;1.58;;;0.80;;
13487;SDS011;6816;48.506;9.050;2023-04-23T10:27:41;0.70;;;0.70;;
13487;SDS011;6816;48.506;9.050;2023-04-23T10:30:43;0.70;;;0.70;;
13487;SDS011;6816;48.506;9.050;2023-04-23T10:33:44;0.80;;;0.80;;
13487;SDS011;6816;48.506;9.050;2023-04-23T10:36:49;1.08;;;0.70;;
13487;SDS011;6816;48.506;9.050;2023-04-23T10:39:54;1.00;;;0.73;;
13487;SDS011;6816;48.506;9.050;2023-04-23T10:42:59;0.68;;;0.68;;
13487;SDS011;6816;48.506;9.050;2023-04-23T10:46:00;1.13;;;0.77;;
13487;SDS011;6816;48.506;9.050;2023-04-23T10:49:04;0.77;;;0.70;;
13487;SDS011;6816;48.506;9.050;2023-04-23T10:52:10;0.88;;;0.75;;
13487;SDS011;6816;48.506;9.050;2023-04-23T10:55:16;0.88;;;0.70;;
13487;SDS011;6816;48.506;9.050;2023-04-23T10:58:18;0.60;;;0.60;;
13487;SDS011;6816;48.506;9.050;2023-04-23T11:01:27;0.85;;;0.85;;
13487;SDS011;6816;48.506;9.050;2023-04-23T11:04:29;0.80;;;0.80;;
13487;SDS011;6816;48.506;9.050;2023-04-23T11:07:31;0.75;;;0.75;;
13487;SDS011;6816;48.506;9.050;2023-04-23T11:10:32;2.17;;;0.60;;
13487;SDS011;6816;48.506;9.050;2023-04-23T11:13:33;0.60;;;0.60;;
13487;SDS011;6816;48.506;9.050;2023-04-23T11:16:34;0.70;;;0.70;;
13487;SDS011;6816;48.506;9.050;2023-04-23T11:19:36;0.90;;;0.90;;
13487;SDS011;6816;48.506;9.050;2023-04-23T11:25:39;0.80;;;0.80;;
13487;SDS011;6816;48.506;9.050;2023-04-23T11:28:42;0.80;;;0.80;;
13487;SDS011;6816;48.506;9.050;2023-04-23T11:31:45;0.95;;;0.88;;
13487;SDS011;6816;48.506;9.050;2023-04-23T11:34:46;0.80;;;0.80;;
13487;SDS011;6816;48.506;9.050;2023-04-23T11:37:49;0.73;;;0.73;;
13487;SDS011;6816;48.506;9.050;2023-04-23T11:40:50;1.15;;;1.15;;
13487;SDS011;6816;48.506;9.050;2023-04-23T11:43:52;0.95;;;0.80;;
13487;SDS011;6816;48.506;9.050;2023-04-23T11:46:52;1.00;;;0.90;;
13487;SDS011;6816;48.506;9.050;2023-04-23T11:49:53;0.60;;;0.60;;
13487;SDS011;6816;48.506;9.050;2023-04-23T11:52:54;0.82;;;0.70;;
13487;SDS011;6816;48.506;9.050;2023-04-23T11:55:55;1.30;;;0.90;;
13487;SDS011;6816;48.506;9.050;2023-04-23T11:58:57;0.95;;;0.80;;
13487;SDS011;6816;48.506;9.050;2023-04-23T12:01:59;1.83;;;0.60;;
13487;SDS011;6816;48.506;9.050;2023-04-23T12:05:03;1.70;;;0.75;;
13487;SDS011;6816;48.506;9.050;2023-04-23T12:08:15;0.88;;;0.88;;
13487;SDS011;6816;48.506;9.050;2023-04-23T12:11:20;0.80;;;0.60;;
13487;SDS011;6816;48.506;9.050;2023-04-23T12:14:27;0.70;;;0.70;;
13487;SDS011;6816;48.506;9.050;2023-04-23T12:17:29;0.77;;;0.77;;
13487;SDS011;6816;48.506;9.050;2023-04-23T12:20:30;0.85;;;0.82;;
13487;SDS011;6816;48.506;9.050;2023-04-23T12:23:31;0.70;;;0.70;;
13487;SDS011;6816;48.506;9.050;2023-04-23T12:26:35;0.98;;;0.80;;
13487;SDS011;6816;48.506;9.050;2023-04-23T12:29:36;1.02;;;0.80;;
13487;SDS011;6816;48.506;9.050;2023-04-23T12:32:36;1.33;;;0.77;;
13487;SDS011;6816;48.506;9.050;2023-04-23T12:38:39;0.60;;;0.60;;
13487;SDS011;6816;48.506;9.050;2023-04-23T12:41:41;1.17;;;0.70;;
13487;SDS011;6816;48.506;9.050;2023-04-23T12:44:41;1.63;;;0.75;;
13487;SDS011;6816;48.506;9.050;2023-04-23T12:47:42;1.00;;;0.93;;
13487;SDS011;6816;48.506;9.050;2023-04-23T12:50:43;0.70;;;0.70;;
13487;SDS011;6816;48.506;9.050;2023-04-23T12:53:45;0.65;;;0.60;;
13487;SDS011;6816;48.506;9.050;2023-04-23T12:56:46;0.90;;;0.60;;
13487;SDS011;6816;48.506;9.050;2023-04-23T12:59:46;1.58;;;0.80;;
13487;SDS011;6816;48.506;9.050;2023-04-23T13:02:47;1.42;;;0.95;;
13487;SDS011;6816;48.506;9.050;2023-04-23T13:05:48;1.15;;;0.70;;
13487;SDS011;6816;48.506;9.050;2023-04-23T13:08:49;1.23;;;0.80;;
13487;SDS011;6816;48.506;9.050;2023-04-23T13:11:49;1.25;;;0.85;;
13487;SDS011;6816;48.506;9.050;2023-04-23T13:14:50;1.88;;;0.90;;
13487;SDS011;6816;48.506;9.050;2023-04-23T13:17:51;0.90;;;0.77;;
13487;SDS011;6816;48.506;9.050;2023-04-23T13:20:51;1.00;;;0.90;;
13487;SDS011;6816;48.506;9.050;2023-04-23T13:23:52;0.65;;;0.65;;
13487;SDS011;6816;48.506;9.050;2023-04-23T13:26:52;0.82;;;0.73;;
13487;SDS011;6816;48.506;9.050;2023-04-23T13:29:55;0.90;;;0.90;;
13487;SDS011;6816;48.506;9.050;2023-04-23T13:32:59;0.82;;;0.80;;
13487;SDS011;6816;48.506;9.050;2023-04-23T13:36:00;0.70;;;0.70;;
13487;SDS011;6816;48.506;9.050;2023-04-23T13:39:01;0.93;;;0.85;;
13487;SDS011;6816;48.506;9.050;2023-04-23T13:42:02;1.15;;;0.93;;
13487;SDS011;6816;48.506;9.050;2023-04-23T13:45:03;1.20;;;0.90;;
13487;SDS011;6816;48.506;9.050;2023-04-23T13:48:05;0.80;;;0.80;;
13487;SDS011;6816;48.506;9.050;2023-04-23T13:51:06;0.98;;;0.88;;
13487;SDS011;6816;48.506;9.050;2023-04-23T13:54:07;2.53;;;1.15;;
13487;SDS011;6816;48.506;9.050;2023-04-23T13:57:08;0.82;;;0.77;;
13487;SDS011;6816;48.506;9.050;2023-04-23T14:00:08;1.23;;;0.88;;
13487;SDS011;6816;48.506;9.050;2023-04-23T14:03:11;0.95;;;0.90;;
13487;SDS011;6816;48.506;9.050;2023-04-23T14:06:12;0.85;;;0.80;;
13487;SDS011;6816;48.506;9.050;2023-04-23T14:09:12;1.00;;;0.70;;
13487;SDS011;6816;48.506;9.050;2023-04-23T14:12:13;1.38;;;1.10;;
13487;SDS011;6816;48.506;9.050;2023-04-23T14:15:14;1.35;;;0.75;;
13487;SDS011;6816;48.506;9.050;2023-04-23T14:18:16;0.95;;;0.70;;
13487;SDS011;6816;48.506;9.050;2023-04-23T14:21:17;0.80;;;0.80;;
13487;SDS011;6816;48.506;9.050;2023-04-23T14:24:27;1.30;;;0.80;;
13487;SDS011;6816;48.506;9.050;2023-04-23T14:27:33;0.82;;;0.70;;
13487;SDS011;6816;48.506;9.050;2023-04-23T14:30:40;0.80;;;0.80;;
13487;SDS011;6816;48.506;9.050;2023-04-23T14:33:41;1.30;;;0.93;;
13487;SDS011;6816;48.506;9.050;2023-04-23T14:36:42;1.08;;;0.98;;
13487;SDS011;6816;48.506;9.050;2023-04-23T14:39:43;1.08;;;1.00;;
13487;SDS011;6816;48.506;9.050;2023-04-23T14:42:46;1.10;;;1.00;;
13487;SDS011;6816;48.506;9.050;2023-04-23T14:45:47;1.58;;;1.10;;
13487;SDS011;6816;48.506;9.050;2023-04-23T14:48:47;1.35;;;1.10;;
13487;SDS011;6816;48.506;9.050;2023-04-23T14:51:48;1.85;;;1.20;;
13487;SDS011;6816;48.506;9.050;2023-04-23T14:54:53;1.27;;;1.08;;
13487;SDS011;6816;48.506;9.050;2023-04-23T14:57:54;1.00;;;1.00;;
13487;SDS011;6816;48.506;9.050;2023-04-23T15:00:55;2.28;;;0.80;;
13487;SDS011;6816;48.506;9.050;2023-04-23T15:03:56;1.90;;;1.20;;
13487;SDS011;6816;48.506;9.050;2023-04-23T15:06:56;1.20;;;0.77;;
13487;SDS011;6816;48.506;9.050;2023-04-23T15:09:58;1.73;;;0.93;;
13487;SDS011;6816;48.506;9.050;2023-04-23T15:13:21;1.08;;;0.70;;
13487;SDS011;6816;48.506;9.050;2023-04-23T15:16:30;0.98;;;0.70;;
13487;SDS011;6816;48.506;9.050;2023-04-23T15:19:33;0.55;;;0.55;;
13487;SDS011;6816;48.506;9.050;2023-04-23T15:22:33;0.50;;;0.47;;
13487;SDS011;6816;48.506;9.050;2023-04-23T15:25:34;0.57;;;0.52;;
13487;SDS011;6816;48.506;9.050;2023-04-23T15:28:35;0.50;;;0.50;;
13487;SDS011;6816;48.506;9.050;2023-04-23T15:31:36;0.65;;;0.50;;
13487;SDS011;6816;48.506;9.050;2023-04-23T15:34:37;1.00;;;0.75;;
13487;SDS011;6816;48.506;9.050;2023-04-23T15:37:37;1.70;;;1.13;;
13487;SDS011;6816;48.506;9.050;2023-04-23T15:40:38;0.80;;;0.60;;
13487;SDS011;6816;48.506;9.050;2023-04-23T15:43:41;1.02;;;0.73;;
13487;SDS011;6816;48.506;9.050;2023-04-23T15:46:42;0.70;;;0.70;;
13487;SDS011;6816;48.506;9.050;2023-04-23T15:49:42;1.23;;;0.70;;
13487;SDS011;6816;48.506;9.050;2023-04-23T15:52:43;0.85;;;0.65;;
13487;SDS011;6816;48.506;9.050;2023-04-23T15:55:44;0.65;;;0.55;;
13487;SDS011;6816;48.506;9.050;2023-04-23T15:58:44;4.05;;;1.08;;
13487;SDS011;6816;48.506;9.050;2023-04-23T16:01:45;1.23;;;0.60;;
13487;SDS011;6816;48.506;9.050;2023-04-23T16:04:46;0.55;;;0.55;;
13487;SDS011;6816;48.506;9.050;2023-04-23T16:07:46;1.45;;;0.50;;
13487;SDS011;6816;48.506;9.050;2023-04-23T16:10:47;0.77;;;0.57;;
13487;SDS011;6816;48.506;9.050;2023-04-23T16:13:48;0.98;;;0.65;;
13487;SDS011;6816;48.506;9.050;2023-04-23T16:16:48;1.03;;;0.50;;
13487;SDS011;6816;48.506;9.050;2023-04-23T16:19:49;0.73;;;0.73;;
13487;SDS011;6816;48.506;9.050;2023-04-23T16:22:49;1.53;;;0.80;;
13487;SDS011;6816;48.506;9.050;2023-04-23T16:25:50;0.83;;;0.60;;
13487;SDS011;6816;48.506;9.050;2023-04-23T16:28:51;1.27;;;0.50;;
13487;SDS011;6816;48.506;9.050;2023-04-23T16:31:52;1.07;;;0.67;;
13487;SDS011;6816;48.506;9.050;2023-04-23T16:34:52;2.73;;;0.80;;
13487;SDS011;6816;48.506;9.050;2023-04-23T16:37:53;1.17;;;0.70;;
13487;SDS011;6816;48.506;9.050;2023-04-23T16:40:54;1.30;;;0.80;;
13487;SDS011;6816;48.506;9.050;2023-04-23T16:43:54;1.30;;;1.10;;
13487;SDS011;6816;48.506;9.050;2023-04-23T16:46:55;0.83;;;0.63;;
13487;SDS011;6816;48.506;9.050;2023-04-23T16:49:55;0.90;;;0.60;;
13487;SDS011;6816;48.506;9.050;2023-04-23T16:52:56;1.27;;;0.70;;
13487;SDS011;6816;48.506;9.050;2023-04-23T16:55:57;1.27;;;0.90;;
13487;SDS011;6816;48.506;9.050;2023-04-23T16:58:57;0.97;;;0.80;;
13487;SDS011;6816;48.506;9.050;2023-04-23T17:01:58;1.53;;;0.90;;
13487;SDS011;6816;48.506;9.050;2023-04-23T17:04:59;1.17;;;0.80;;
13487;SDS011;6816;48.506;9.050;2023-04-23T17:07:59;2.10;;;0.90;;
13487;SDS011;6816;48.506;9.050;2023-04-23T17:11:00;0.93;;;0.60;;
13487;SDS011;6816;48.506;9.050;2023-04-23T17:14:01;0.70;;;0.70;;
13487;SDS011;6816;48.506;9.050;2023-04-23T17:17:01;0.97;;;0.70;;
13487;SDS011;6816;48.506;9.050;2023-04-23T17:20:03;0.60;;;0.60;;
13487;SDS011;6816;48.506;9.050;2023-04-23T17:23:07;1.17;;;0.60;;
13487;SDS011;6816;48.506;9.050;2023-04-23T17:26:07;0.50;;;0.50;;
13487;SDS011;6816;48.506;9.050;2023-04-23T17:29:08;2.10;;;0.60;;
13487;SDS011;6816;48.506;9.050;2023-04-23T17:32:09;0.53;;;0.53;;
13487;SDS011;6816;48.506;9.050;2023-04-23T17:35:10;2.07;;;0.80;;
13487;SDS011;6816;48.506;9.050;2023-04-23T17:38:11;1.23;;;0.63;;
13487;SDS011;6816;48.506;9.050;2023-04-23T17:41:12;1.63;;;0.77;;
13487;SDS011;6816;48.506;9.050;2023-04-23T17:44:12;0.70;;;0.67;;
13487;SDS011;6816;48.506;9.050;2023-04-23T17:47:13;2.73;;;0.73;;
13487;SDS011;6816;48.506;9.050;2023-04-23T17:50:14;1.70;;;0.87;;
13487;SDS011;6816;48.506;9.050;2023-04-23T17:53:14;1.60;;;0.60;;
13487;SDS011;6816;48.506;9.050;2023-04-23T17:56:15;1.43;;;0.83;;
13487;SDS011;6816;48.506;9.050;2023-04-23T17:59:16;1.77;;;0.90;;
13487;SDS011;6816;48.506;9.050;2023-04-23T18:02:16;1.17;;;0.90;;
13487;SDS011;6816;48.506;9.050;2023-04-23T18:05:17;1.20;;;1.10;;
13487;SDS011;6816;48.506;9.050;2023-04-23T18:08:18;2.67;;;1.07;;
13487;SDS011;6816;48.506;9.050;2023-04-23T18:11:20;1.10;;;0.87;;
13487;SDS011;6816;48.506;9.050;2023-04-23T18:14:20;2.33;;;0.90;;
13487;SDS011;6816;48.506;9.050;2023-04-23T18:17:22;1.13;;;0.67;;
13487;SDS011;6816;48.506;9.050;2023-04-23T18:20:23;1.53;;;0.80;;
13487;SDS011;6816;48.506;9.050;2023-04-23T18:23:25;1.57;;;0.90;;
13487;SDS011;6816;48.506;9.050;2023-04-23T18:26:26;1.93;;;0.83;;
13487;SDS011;6816;48.506;9.050;2023-04-23T18:29:26;1.43;;;0.90;;
13487;SDS011;6816;48.506;9.050;2023-04-23T18:32:28;1.40;;;0.80;;
13487;SDS011;6816;48.506;9.050;2023-04-23T18:35:35;1.33;;;0.97;;
13487;SDS011;6816;48.506;9.050;2023-04-23T18:38:38;1.30;;;0.87;;